createdAt,value
2022-11-04T00:01:05.013Z,22.50
2022-11-04T00:03:33.235Z,22.60
2022-11-04T00:06:04.272Z,22.60
2022-11-04T00:08:32.344Z,22.60
2022-11-04T00:11:19.136Z,22.60
2022-11-04T00:13:48.640Z,22.60
2022-11-04T00:16:34.266Z,22.60
2022-11-04T00:19:02.728Z,22.60
2022-11-04T00:21:49.895Z,22.60
2022-11-04T00:24:35.681Z,22.60
2022-11-04T00:27:29.502Z,22.50
2022-11-04T00:29:57.680Z,22.60
2022-11-04T00:32:44.029Z,22.50
2022-11-04T00:35:13.409Z,22.60
2022-11-04T00:37:44.365Z,22.60
2022-11-04T00:40:14.237Z,22.50
2022-11-04T00:42:44.600Z,22.60
2022-11-04T00:45:12.696Z,22.60
2022-11-04T00:47:42.692Z,22.60
2022-11-04T00:50:11.156Z,22.50
2022-11-04T00:52:39.571Z,22.60
2022-11-04T00:55:10.014Z,22.60
2022-11-04T00:57:38.096Z,22.60
2022-11-04T01:00:07.221Z,22.60
2022-11-04T01:02:35.512Z,22.50
2022-11-04T01:05:03.772Z,22.60
2022-11-04T01:07:32.370Z,22.60
2022-11-04T01:10:00.457Z,22.60
2022-11-04T01:12:29.954Z,22.50
2022-11-04T01:14:58.050Z,22.50
2022-11-04T01:17:26.173Z,22.50
2022-11-04T01:19:54.271Z,22.50
2022-11-04T01:22:22.331Z,22.50
2022-11-04T01:24:50.384Z,22.50
2022-11-04T01:27:18.482Z,22.50
2022-11-04T01:29:47.979Z,22.50
2022-11-04T01:32:16.059Z,22.50
2022-11-04T01:34:44.143Z,22.50
2022-11-04T01:37:12.438Z,22.50
2022-11-04T01:39:40.518Z,22.50
2022-11-04T01:42:11.973Z,22.50
2022-11-04T01:44:56.042Z,22.50
2022-11-04T01:47:28.633Z,22.50
2022-11-04T01:50:00.671Z,22.50
2022-11-04T01:52:34.904Z,22.50
2022-11-04T01:55:08.116Z,22.50
2022-11-04T01:57:41.531Z,22.50
2022-11-04T02:00:13.133Z,22.50
2022-11-04T02:02:51.087Z,22.50
2022-11-04T02:05:19.793Z,22.50
2022-11-04T02:07:52.096Z,22.50
2022-11-04T02:10:23.399Z,22.50
2022-11-04T02:12:51.101Z,22.50
2022-11-04T02:15:31.703Z,22.50
2022-11-04T02:18:19.278Z,22.50
2022-11-04T02:21:07.777Z,22.50
2022-11-04T02:24:06.449Z,22.50
2022-11-04T02:27:07.723Z,22.50
2022-11-04T02:30:08.744Z,22.50
2022-11-04T02:32:58.270Z,22.50
2022-11-04T02:35:36.016Z,22.50
2022-11-04T02:38:11.725Z,22.40
2022-11-04T02:40:46.610Z,22.50
2022-11-04T02:43:22.610Z,22.50
2022-11-04T02:45:57.898Z,22.40
2022-11-04T02:48:33.259Z,22.40
2022-11-04T02:51:06.531Z,22.40
2022-11-04T02:53:39.810Z,22.40
2022-11-04T02:56:09.544Z,22.40
2022-11-04T02:58:42.744Z,22.40
2022-11-04T03:01:16.477Z,22.40
2022-11-04T03:03:49.453Z,22.40
2022-11-04T03:06:22.242Z,22.40
2022-11-04T03:08:53.408Z,22.40
2022-11-04T03:11:24.668Z,22.40
2022-11-04T03:13:58.798Z,22.40
2022-11-04T03:16:34.352Z,22.40
2022-11-04T03:19:08.275Z,22.40
2022-11-04T03:21:42.460Z,22.40
2022-11-04T03:24:10.777Z,22.40
2022-11-04T03:26:44.698Z,22.40
2022-11-04T03:29:26.791Z,22.40
2022-11-04T03:32:04.836Z,22.40
2022-11-04T03:34:33.209Z,22.40
2022-11-04T03:37:01.682Z,22.40
2022-11-04T03:39:30.021Z,22.40
2022-11-04T03:42:01.597Z,22.40
2022-11-04T03:44:31.383Z,22.40
2022-11-04T03:47:01.324Z,22.40
2022-11-04T03:49:29.461Z,22.40
2022-11-04T03:51:59.165Z,22.40
2022-11-04T03:54:27.270Z,22.40
2022-11-04T03:57:16.929Z,22.40
2022-11-04T04:00:11.386Z,22.40
2022-11-04T04:02:53.157Z,22.40
2022-11-04T04:05:25.626Z,22.40
2022-11-04T04:08:01.115Z,22.40
2022-11-04T04:10:42.866Z,22.40
2022-11-04T04:13:22.501Z,22.40
2022-11-04T04:15:55.662Z,22.40
2022-11-04T04:18:34.754Z,22.40
2022-11-04T04:21:07.252Z,22.40
2022-11-04T04:23:54.935Z,22.40
2022-11-04T04:26:43.354Z,22.40
2022-11-04T04:29:12.165Z,22.40
2022-11-04T04:31:50.681Z,22.40
2022-11-04T04:34:24.729Z,22.40
2022-11-04T04:36:57.518Z,22.40
2022-11-04T04:39:48.158Z,22.40
2022-11-04T04:42:33.868Z,22.40
2022-11-04T04:45:04.665Z,22.40
2022-11-04T04:47:37.908Z,22.40
2022-11-04T04:50:08.677Z,22.40
2022-11-04T04:52:40.698Z,22.40
2022-11-04T04:55:09.991Z,22.40
2022-11-04T04:57:38.335Z,22.40
2022-11-04T05:00:08.785Z,22.40
2022-11-04T05:02:36.889Z,22.40
2022-11-04T05:05:08.029Z,22.40
2022-11-04T05:07:36.173Z,22.40
2022-11-04T05:10:04.500Z,22.40
2022-11-04T05:12:46.496Z,22.40
2022-11-04T05:15:15.079Z,22.40
2022-11-04T05:17:43.245Z,22.40
2022-11-04T05:20:13.553Z,22.30
2022-11-04T05:22:41.903Z,22.30
2022-11-04T05:25:10.188Z,22.40
2022-11-04T05:27:38.238Z,22.30
2022-11-04T05:30:07.587Z,22.30
2022-11-04T05:32:35.675Z,22.40
2022-11-04T05:35:03.810Z,22.40
2022-11-04T05:37:33.315Z,22.40
2022-11-04T05:40:01.412Z,22.40
2022-11-04T05:42:30.552Z,22.40
2022-11-04T05:44:58.648Z,22.40
2022-11-04T05:47:26.780Z,22.40
2022-11-04T05:49:57.549Z,22.40
2022-11-04T05:52:25.704Z,22.40
2022-11-04T05:54:55.176Z,22.40
2022-11-04T05:57:23.315Z,22.40
2022-11-04T05:59:51.424Z,22.40
2022-11-04T06:02:19.601Z,22.40
2022-11-04T06:04:47.738Z,22.30
2022-11-04T06:07:15.807Z,22.40
2022-11-04T06:09:48.885Z,22.40
2022-11-04T06:12:18.430Z,22.40
2022-11-04T06:14:46.508Z,22.30
2022-11-04T06:17:17.031Z,22.40
2022-11-04T06:19:45.324Z,22.30
2022-11-04T06:22:14.298Z,22.30
2022-11-04T06:24:43.163Z,22.30
2022-11-04T06:27:11.821Z,22.40
2022-11-04T06:29:41.819Z,22.30
2022-11-04T06:32:10.622Z,22.30
2022-11-04T06:34:38.844Z,22.30
2022-11-04T06:37:07.020Z,22.30
2022-11-04T06:39:35.314Z,22.30
2022-11-04T06:42:03.956Z,22.30
2022-11-04T06:44:33.990Z,22.30
2022-11-04T06:47:03.479Z,22.40
2022-11-04T06:49:31.605Z,22.30
2022-11-04T06:52:01.075Z,22.40
2022-11-04T06:54:29.172Z,22.40
2022-11-04T06:56:57.199Z,22.40
2022-11-04T06:59:25.299Z,22.40
2022-11-04T07:01:53.595Z,22.30
2022-11-04T07:04:23.104Z,22.30
2022-11-04T07:06:51.201Z,22.40
2022-11-04T07:09:19.260Z,22.40
2022-11-04T07:11:47.658Z,22.40
2022-11-04T07:14:16.114Z,22.40
2022-11-04T07:16:44.223Z,22.40
2022-11-04T07:19:12.435Z,22.40
2022-11-04T07:21:41.858Z,22.40
2022-11-04T07:24:10.194Z,22.40
2022-11-04T07:26:38.319Z,22.40
2022-11-04T07:29:06.775Z,22.40
2022-11-04T07:31:35.190Z,22.40
2022-11-04T07:34:03.292Z,22.30
2022-11-04T07:36:31.479Z,22.40
2022-11-04T07:39:01.041Z,22.40
2022-11-04T07:41:29.505Z,22.30
2022-11-04T07:43:58.921Z,22.30
2022-11-04T07:46:27.054Z,22.30
2022-11-04T07:48:58.181Z,22.40
2022-11-04T07:51:27.725Z,22.30
2022-11-04T07:53:56.632Z,22.30
2022-11-04T07:56:26.443Z,22.30
2022-11-04T07:58:54.773Z,22.30
2022-11-04T08:01:24.644Z,22.30
2022-11-04T08:03:53.214Z,22.30
2022-11-04T08:06:22.302Z,22.30
2022-11-04T08:08:53.968Z,22.30
2022-11-04T08:11:28.322Z,22.30
2022-11-04T08:13:56.854Z,22.30
2022-11-04T08:16:31.467Z,22.30
2022-11-04T08:19:02.337Z,22.30
2022-11-04T08:21:31.472Z,22.30
2022-11-04T08:23:59.630Z,22.30
2022-11-04T08:26:29.129Z,22.30
2022-11-04T08:28:57.585Z,22.30
2022-11-04T08:31:27.251Z,22.40
2022-11-04T08:33:55.920Z,22.40
2022-11-04T08:36:26.122Z,22.40
2022-11-04T08:38:54.976Z,22.40
2022-11-04T08:41:25.861Z,22.40
2022-11-04T08:43:56.563Z,22.40
2022-11-04T08:46:24.674Z,22.40
2022-11-04T08:48:52.785Z,22.40
2022-11-04T08:51:23.574Z,22.40
2022-11-04T08:53:51.711Z,22.40
2022-11-04T08:56:21.863Z,22.40
2022-11-04T08:58:50.775Z,22.40
2022-11-04T09:01:21.859Z,22.50
2022-11-04T09:03:50.563Z,22.50
2022-11-04T09:06:22.215Z,22.50
2022-11-04T09:08:50.648Z,22.50
2022-11-04T09:11:19.732Z,22.50
2022-11-04T09:13:47.950Z,22.50
2022-11-04T09:16:16.763Z,22.60
2022-11-04T09:18:46.491Z,22.60
2022-11-04T09:21:14.619Z,22.60
2022-11-04T09:23:42.718Z,22.60
2022-11-04T09:26:14.295Z,22.60
2022-11-04T09:28:43.119Z,22.60
2022-11-04T09:31:13.391Z,22.70
2022-11-04T09:33:41.740Z,22.70
2022-11-04T09:36:12.071Z,22.70
2022-11-04T09:38:41.941Z,22.70
2022-11-04T09:41:22.528Z,22.70
2022-11-04T09:43:56.843Z,22.70
2022-11-04T09:46:25.571Z,22.70
2022-11-04T09:48:56.239Z,22.80
2022-11-04T09:51:52.458Z,22.80
2022-11-04T09:54:22.504Z,22.80
2022-11-04T09:56:53.223Z,22.80
2022-11-04T09:59:26.418Z,22.80
2022-11-04T10:02:21.641Z,22.80
2022-11-04T10:04:58.690Z,22.80
2022-11-04T10:07:46.339Z,22.90
2022-11-04T10:10:24.047Z,22.90
2022-11-04T10:13:07.149Z,22.90
2022-11-04T10:15:59.061Z,22.90
2022-11-04T10:18:52.703Z,22.90
2022-11-04T10:21:30.746Z,22.90
2022-11-04T10:24:09.323Z,22.90
2022-11-04T10:26:45.353Z,23.00
2022-11-04T10:29:17.627Z,23.00
2022-11-04T10:31:48.816Z,23.00
2022-11-04T10:34:32.786Z,23.00
2022-11-04T10:37:01.057Z,23.00
2022-11-04T10:39:32.108Z,23.00
2022-11-04T10:42:00.327Z,23.00
2022-11-04T10:44:31.429Z,23.00
2022-11-04T10:47:09.581Z,23.00
2022-11-04T10:50:21.836Z,23.00
2022-11-04T10:52:38.765Z,23.10
2022-11-04T10:55:17.158Z,23.10
2022-11-04T10:57:46.008Z,23.10
2022-11-04T11:00:34.326Z,23.10
2022-11-04T11:03:03.003Z,23.10
2022-11-04T11:05:31.632Z,23.10
2022-11-04T11:07:59.960Z,23.20
2022-11-04T11:10:32.596Z,23.20
2022-11-04T11:13:03.501Z,23.20
2022-11-04T11:15:35.143Z,23.20
2022-11-04T11:18:15.184Z,23.20
2022-11-04T11:20:49.001Z,23.20
2022-11-04T11:23:40.749Z,23.30
2022-11-04T11:26:13.132Z,23.30
2022-11-04T11:28:42.399Z,23.30
2022-11-04T11:31:16.718Z,23.30
2022-11-04T11:33:52.259Z,23.30
2022-11-04T11:36:23.349Z,23.30
2022-11-04T11:39:04.117Z,23.30
2022-11-04T11:41:39.668Z,23.30
2022-11-04T11:44:21.331Z,23.40
2022-11-04T11:46:54.690Z,23.40
2022-11-04T11:49:28.477Z,23.40
2022-11-04T11:51:57.673Z,23.40
2022-11-04T11:54:33.510Z,23.40
2022-11-04T11:57:16.016Z,23.40
2022-11-04T12:02:48.725Z,23.50
2022-11-04T12:11:21.115Z,23.50
2022-11-04T12:13:54.289Z,23.50
2022-11-04T12:16:32.754Z,23.50
2022-11-04T12:19:20.943Z,23.50
2022-11-04T12:21:55.796Z,23.50
2022-11-04T12:24:31.992Z,23.50
2022-11-04T12:27:12.916Z,23.50
2022-11-04T12:29:56.961Z,23.50
2022-11-04T12:32:37.328Z,23.50
2022-11-04T12:35:17.187Z,23.50
2022-11-04T12:37:56.106Z,23.50
2022-11-04T12:40:29.083Z,23.50
2022-11-04T12:43:16.558Z,23.50
2022-11-04T12:45:57.458Z,23.50
2022-11-04T12:48:38.540Z,23.50
2022-11-04T12:51:16.481Z,23.50
2022-11-04T12:54:05.952Z,23.50
2022-11-04T12:56:38.497Z,23.50
2022-11-04T12:59:26.802Z,23.40
2022-11-04T13:02:00.614Z,23.40
2022-11-04T13:04:35.872Z,23.40
2022-11-04T13:07:11.188Z,23.40
2022-11-04T13:09:43.657Z,23.40
2022-11-04T13:12:17.244Z,23.40
2022-11-04T13:14:49.386Z,23.40
2022-11-04T13:17:23.908Z,23.40
2022-11-04T13:19:54.000Z,23.40
2022-11-04T13:22:25.365Z,23.50
2022-11-04T13:25:00.052Z,23.50
2022-11-04T13:27:33.175Z,23.50
2022-11-04T13:30:07.585Z,23.50
2022-11-04T13:32:49.916Z,23.50
2022-11-04T13:35:27.253Z,23.50
2022-11-04T13:37:59.992Z,23.50
2022-11-04T13:40:32.935Z,23.50
2022-11-04T13:43:39.400Z,23.50
2022-11-04T13:46:20.760Z,23.50
2022-11-04T13:49:01.052Z,23.50
2022-11-04T13:51:40.425Z,23.50
2022-11-04T13:54:14.638Z,23.50
2022-11-04T13:56:43.290Z,23.50
2022-11-04T13:59:29.693Z,23.50
2022-11-04T14:02:31.381Z,23.50
2022-11-04T14:05:54.456Z,23.50
2022-11-04T14:08:23.972Z,23.50
2022-11-04T14:11:07.957Z,23.50
2022-11-04T14:14:03.780Z,23.50
2022-11-04T14:16:46.124Z,23.50
2022-11-04T14:19:59.797Z,23.60
2022-11-04T14:22:38.824Z,23.50
2022-11-04T14:25:25.822Z,23.50
2022-11-04T14:27:55.770Z,23.50
2022-11-04T14:30:43.989Z,23.50
2022-11-04T14:33:39.611Z,23.50
2022-11-04T14:36:27.753Z,23.50
2022-11-04T14:38:59.546Z,23.50
2022-11-04T14:41:56.660Z,23.50
2022-11-04T14:44:32.931Z,23.50
2022-11-04T14:47:07.363Z,23.50
2022-11-04T14:49:41.088Z,23.60
2022-11-04T14:52:20.339Z,23.50
2022-11-04T14:54:49.412Z,23.50
2022-11-04T14:57:20.851Z,23.50
2022-11-04T14:59:52.150Z,23.50
2022-11-04T15:02:23.273Z,23.50
2022-11-04T15:04:56.872Z,23.50
2022-11-04T15:07:36.516Z,23.50
2022-11-04T15:10:20.718Z,23.50
2022-11-04T15:12:54.664Z,23.50
2022-11-04T15:15:36.247Z,23.50
2022-11-04T15:18:08.081Z,23.50
2022-11-04T15:20:42.028Z,23.50
2022-11-04T15:23:15.559Z,23.50
2022-11-04T15:25:48.625Z,23.50
2022-11-04T15:28:22.481Z,23.50
2022-11-04T15:31:16.535Z,23.50
2022-11-04T15:33:47.258Z,23.50
2022-11-04T15:36:18.510Z,23.50
2022-11-04T15:38:51.255Z,23.50
2022-11-04T15:41:40.126Z,23.40
2022-11-04T15:44:20.409Z,23.40
2022-11-04T15:46:51.094Z,23.40
2022-11-04T15:49:26.188Z,23.40
2022-11-04T15:51:59.702Z,23.40
2022-11-04T15:54:31.193Z,23.30
2022-11-04T15:57:03.529Z,23.30
2022-11-04T15:59:35.673Z,23.30
2022-11-04T16:02:06.558Z,23.30
2022-11-04T16:04:34.820Z,23.30
2022-11-04T16:07:21.781Z,23.30
2022-11-04T16:09:52.096Z,23.20
2022-11-04T16:12:28.032Z,23.20
2022-11-04T16:14:58.751Z,23.20
2022-11-04T16:17:28.477Z,23.20
2022-11-04T16:19:58.966Z,23.10
2022-11-04T16:22:31.708Z,23.10
2022-11-04T16:25:02.432Z,23.10
2022-11-04T16:31:36.292Z,23.10
2022-11-04T16:34:05.106Z,23.00
2022-11-04T16:36:35.762Z,23.00
2022-11-04T16:39:08.480Z,23.00
2022-11-04T16:41:39.382Z,23.00
2022-11-04T16:44:19.909Z,23.00
2022-11-04T16:46:49.407Z,23.00
2022-11-04T16:49:21.687Z,23.00
2022-11-04T16:51:54.577Z,23.00
2022-11-04T16:54:23.515Z,22.90
2022-11-04T16:56:51.810Z,23.00
2022-11-04T16:59:19.954Z,22.90
2022-11-04T17:01:49.601Z,22.90
2022-11-04T17:04:17.766Z,22.90
2022-11-04T17:06:46.291Z,22.90
2022-11-04T17:09:21.427Z,22.90
2022-11-04T17:11:49.814Z,22.90
2022-11-04T17:14:17.961Z,22.90
2022-11-04T17:16:46.183Z,22.90
2022-11-04T17:19:17.663Z,22.90
2022-11-04T17:21:47.466Z,22.90
2022-11-04T17:24:15.744Z,22.90
2022-11-04T17:26:43.854Z,22.80
2022-11-04T17:29:17.068Z,22.80
2022-11-04T17:31:45.616Z,22.80
2022-11-04T17:34:13.716Z,22.80
2022-11-04T17:36:43.191Z,22.80
2022-11-04T17:39:11.286Z,22.80
2022-11-04T17:41:56.703Z,22.80
2022-11-04T17:44:24.794Z,22.80
2022-11-04T17:46:52.914Z,22.80
2022-11-04T17:49:22.986Z,22.70
2022-11-04T17:51:55.763Z,22.70
2022-11-04T17:54:25.361Z,22.70
2022-11-04T17:56:53.475Z,22.70
2022-11-04T17:59:21.681Z,22.70
2022-11-04T18:01:50.229Z,22.70
2022-11-04T18:04:23.026Z,22.70
2022-11-04T18:06:55.089Z,22.70
2022-11-04T18:09:26.615Z,22.70
2022-11-04T18:12:12.437Z,22.70
2022-11-04T18:14:40.537Z,22.70
2022-11-04T18:17:11.497Z,22.60
2022-11-04T18:19:39.567Z,22.60
2022-11-04T18:22:09.050Z,22.60
2022-11-04T18:24:37.238Z,22.60
2022-11-04T18:27:05.416Z,22.60
2022-11-04T18:29:33.498Z,22.60
2022-11-04T18:32:02.064Z,22.60
2022-11-04T18:34:30.221Z,22.60
2022-11-04T18:36:58.854Z,22.60
2022-11-04T18:39:28.358Z,22.60
2022-11-04T18:41:56.452Z,22.60
2022-11-04T18:44:24.827Z,22.60
2022-11-04T18:46:53.404Z,22.60
2022-11-04T18:49:21.732Z,22.50
2022-11-04T18:51:49.939Z,22.50
2022-11-04T18:54:18.105Z,22.50
2022-11-04T18:56:47.622Z,22.50
2022-11-04T18:59:16.777Z,22.50
2022-11-04T19:01:45.559Z,22.50
2022-11-04T19:04:14.571Z,22.50
2022-11-04T19:06:44.458Z,22.50
2022-11-04T19:12:21.644Z,22.50
2022-11-04T19:14:49.886Z,22.50
2022-11-04T19:17:17.974Z,22.50
2022-11-04T19:19:46.249Z,22.50
2022-11-04T19:22:14.644Z,22.50
2022-11-04T19:24:42.846Z,22.50
2022-11-04T19:27:12.322Z,22.50
2022-11-04T19:29:40.477Z,22.50
2022-11-04T19:32:13.874Z,22.50
2022-11-04T19:34:42.751Z,22.40
2022-11-04T19:37:11.664Z,22.40
2022-11-04T19:39:40.100Z,22.40
2022-11-04T19:42:40.646Z,22.50
2022-11-04T19:45:12.165Z,22.50
2022-11-04T19:47:40.317Z,22.50
2022-11-04T19:50:09.062Z,22.50
2022-11-04T19:52:37.279Z,22.50
2022-11-04T19:55:07.180Z,22.50
2022-11-04T19:57:35.807Z,22.50
2022-11-04T20:00:04.769Z,22.50
2022-11-04T20:02:41.131Z,22.50
2022-11-04T20:05:10.399Z,22.60
2022-11-04T20:07:39.377Z,22.60
2022-11-04T20:10:08.462Z,22.60
2022-11-04T20:12:54.217Z,22.60
2022-11-04T20:15:22.763Z,22.60
2022-11-04T20:17:52.224Z,22.60
2022-11-04T20:20:20.330Z,22.60
2022-11-04T20:22:48.400Z,22.60
2022-11-04T20:25:16.623Z,22.60
2022-11-04T20:27:44.753Z,22.60
2022-11-04T20:30:13.492Z,22.60
2022-11-04T20:32:41.641Z,22.60
2022-11-04T20:35:11.381Z,22.60
2022-11-04T20:37:39.663Z,22.60
2022-11-04T20:40:09.414Z,22.60
2022-11-04T20:42:37.588Z,22.60
2022-11-04T20:45:06.544Z,22.60
2022-11-04T20:47:36.003Z,22.60
2022-11-04T20:50:04.703Z,22.60
2022-11-04T20:52:36.972Z,22.60
2022-11-04T20:55:05.625Z,22.60
2022-11-04T20:57:35.118Z,22.60
2022-11-04T21:00:04.225Z,22.60
2022-11-04T21:02:32.544Z,22.60
2022-11-04T21:05:00.857Z,22.60
2022-11-04T21:07:29.018Z,22.60
2022-11-04T21:09:58.670Z,22.60
2022-11-04T21:12:26.821Z,22.60
2022-11-04T21:14:54.950Z,22.60
2022-11-04T21:17:23.081Z,22.60
2022-11-04T21:19:51.572Z,22.60
2022-11-04T21:22:19.694Z,22.60
2022-11-04T21:24:47.812Z,22.60
2022-11-04T21:27:17.260Z,22.60
2022-11-04T21:29:45.492Z,22.60
2022-11-04T21:32:13.611Z,22.60
2022-11-04T21:34:41.743Z,22.60
2022-11-04T21:37:09.833Z,22.60
2022-11-04T21:39:37.995Z,22.60
2022-11-04T21:42:06.396Z,22.60
2022-11-04T21:44:35.836Z,22.60
2022-11-04T21:47:03.932Z,22.60
2022-11-04T21:49:32.028Z,22.60
2022-11-04T21:52:00.092Z,22.60
2022-11-04T21:54:28.327Z,22.60
2022-11-04T21:56:56.414Z,22.60
2022-11-04T21:59:24.484Z,22.60
2022-11-04T22:01:54.138Z,22.60
2022-11-04T22:04:22.330Z,22.60
2022-11-04T22:06:50.559Z,22.60
2022-11-04T22:09:18.670Z,22.60
2022-11-04T22:11:46.881Z,22.60
2022-11-04T22:14:15.288Z,22.60
2022-11-04T22:16:43.402Z,22.60
2022-11-04T22:19:14.541Z,22.60
2022-11-04T22:21:44.809Z,22.60
2022-11-04T22:24:13.773Z,22.60
2022-11-04T22:26:42.335Z,22.60
2022-11-04T22:29:11.254Z,22.60
2022-11-04T22:31:42.688Z,22.60
2022-11-04T22:34:12.180Z,22.60
2022-11-04T22:36:40.382Z,22.60
2022-11-04T22:39:13.453Z,22.60
2022-11-04T22:41:46.235Z,22.60
2022-11-04T22:44:14.897Z,22.50
2022-11-04T22:46:43.421Z,22.60
2022-11-04T22:49:14.371Z,22.60
2022-11-04T22:51:42.454Z,22.50
2022-11-04T22:54:11.237Z,22.50
2022-11-04T22:56:39.381Z,22.60
2022-11-04T22:59:07.973Z,22.60
2022-11-04T23:01:36.255Z,22.60
2022-11-04T23:04:04.791Z,22.50
2022-11-04T23:06:34.492Z,22.50
2022-11-04T23:09:02.622Z,22.50
2022-11-04T23:11:49.174Z,22.50
2022-11-04T23:14:36.189Z,22.50
2022-11-04T23:17:26.807Z,22.50
2022-11-04T23:19:54.993Z,22.50
2022-11-04T23:22:42.175Z,22.50
2022-11-04T23:25:10.713Z,22.50
2022-11-04T23:27:58.649Z,22.50
2022-11-04T23:30:28.023Z,22.50
2022-11-04T23:32:58.450Z,22.50
2022-11-04T23:35:46.616Z,22.50
2022-11-04T23:38:16.413Z,22.50
2022-11-04T23:41:06.232Z,22.50
2022-11-04T23:43:34.474Z,22.50
2022-11-04T23:46:20.245Z,22.50
2022-11-04T23:49:06.068Z,22.50
2022-11-04T23:51:51.497Z,22.50
2022-11-04T23:54:50.005Z,22.50
2022-11-04T23:57:36.856Z,22.50
